Latest Weather Observations for Mawson*

IDT60801

Issued at 1:05 pm EST Wednesday 30 July 2014 (issued every 30 minutes, with the page automatically refreshed every 10 minutes)

About weather observations | Map of weather stations | Latest weather observations for ANT | Other Formats
Station Details ID: 300001 Name: MAWSON Lat: -67.60 Lon: 62.88 Height: 9.9 m
Data from the previous 72 hours. | See also: Recent months at Mawson*
Date/Time
EST
Temp
°C
App
Temp
°C
Dew
Point
Rel
Hum
%
Delta-T
°C
Wind Press
QNH
hPa
Press
MSL
hPa
Rain
since 9 am
mm
Dir
 
Spd
km/h
Gust
km/h
Spd
kts
Gust
kts
30/01:00pm -18.5 -24.9 -20.2 86 - WSW 15 20 8 11 1004.0 - -
30/12:30pm -18.5 -25.0 -20.5 84 - WSW 15 20 8 11 1003.8 - -
30/12:00pm -18.4 -25.2 -20.1 86 - WSW 17 28 9 15 1003.7 - -
30/11:30am -18.7 -24.8 -20.6 85 - WSW 13 15 7 8 1003.7 - -
30/11:00am -19.0 -25.1 -20.9 85 - WSW 13 15 7 8 1003.4 - -
30/10:30am -19.0 -25.5 -20.9 85 - SW 15 17 8 9 1003.2 - -
30/10:00am -19.3 -26.5 -21.2 85 - SW 19 20 10 11 1003.0 1003.2 -
30/09:30am -19.4 -25.1 -21.1 86 - W 11 13 6 7 1003.0 - -
30/09:00am -19.3 -25.8 -21.2 85 - WSW 15 17 8 9 1002.8 - -
30/08:30am -19.2 -25.7 -21.1 85 - SW 15 17 8 9 1002.8 - -
30/08:00am -19.8 -26.7 -21.7 85 - WSW 17 19 9 10 1002.8 - -
30/07:30am -19.7 -26.6 -21.6 85 - WSW 17 20 9 11 1002.5 - -
30/07:00am -20.3 -27.2 -22.2 85 - WSW 17 20 9 11 1002.2 1002.4 -
30/06:30am -20.5 -26.3 -22.3 85 - W 11 15 6 8 1002.2 - -
30/06:00am -20.6 -26.7 -22.6 84 - WSW 13 15 7 8 1001.9 - -
30/05:30am -20.8 -25.8 -22.8 84 - WSW 7 9 4 5 1002.0 - -
30/05:00am -21.6 -25.3 -23.7 83 - CALM 0 0 0 0 1002.1 - -
30/04:30am -21.4 -26.2 -23.5 83 - WSW 6 7 3 4 1002.0 - -
30/04:00am -21.0 -26.4 -23.1 83 - WSW 9 11 5 6 1002.1 1002.3 -
30/03:30am -21.3 -26.7 -23.4 83 - WSW 9 11 5 6 1002.6 - -
30/03:00am -21.4 -27.2 -23.6 82 - WSW 11 13 6 7 1002.8 - -
30/02:30am -21.4 -26.4 -23.6 82 - W 7 11 4 6 1002.7 - -
30/02:00am -21.7 -26.2 -23.9 82 - NW 4 6 2 3 1002.9 - -
30/01:30am -22.3 -27.2 -24.7 81 - NW 6 7 3 4 1002.6 - -
30/01:00am -22.2 -26.3 -24.7 80 - S 2 7 1 4 1002.3 1002.5 -
30/12:30am -22.3 -27.2 -24.9 79 - S 6 7 3 4 1002.5 - -
30/12:00am -22.7 -26.4 -25.6 77 - CALM 0 0 0 0 1002.5 - -
 
Date/Time
EST
Temp
°C
App
Temp
°C
Dew
Point
Rel
Hum
%
Delta-T
°C
Wind Press
QNH
hPa
Press
MSL
hPa
Rain
since 9 am
mm
Dir
 
Spd
km/h
Gust
km/h
Spd
kts
Gust
kts
29/11:30pm -22.6 -27.1 -26.1 73 - S 4 6 2 3 1002.5 - -
29/11:00pm -22.4 -27.9 -26.2 71 - WSW 9 13 5 7 1002.4 - -
29/10:30pm -22.2 -26.4 -27.0 65 - NNE 2 6 1 3 1002.2 - -
29/10:00pm -22.9 -28.0 -27.6 65 - NNE 7 9 4 5 1002.0 1002.2 -
29/09:30pm -23.0 -27.2 -27.7 65 - W 2 7 1 4 1001.8 - -
29/09:00pm -22.8 -27.7 -28.0 62 - WSW 6 9 3 5 1001.7 - -
29/08:30pm -22.7 -26.5 -29.0 56 - CALM 0 0 0 0 1001.7 - -
29/08:00pm -22.7 -26.9 -29.2 55 - ESE 2 6 1 3 1002.0 - -
29/07:30pm -23.2 -28.4 -29.3 57 - ESE 7 7 4 4 1002.0 - -
29/07:00pm -22.3 -27.3 -29.4 52 - ESE 6 7 3 4 1002.0 1002.2 -
29/06:30pm -22.6 -26.4 -30.6 48 - CALM 0 0 0 0 1001.7 - -
29/06:00pm -22.7 -27.3 -30.0 51 - ESE 4 6 2 3 1001.7 - -
29/05:30pm -24.5 -29.7 -30.0 60 - NNE 7 7 4 4 1001.5 - -
29/05:00pm -23.4 -28.9 -30.1 54 - WSW 9 11 5 6 1001.1 - -
29/04:30pm -25.3 -29.9 -30.4 62 - SW 4 9 2 5 1001.1 - -
29/04:00pm -25.1 -29.3 -30.7 60 - WSW 2 7 1 4 1000.9 1001.1 -
29/03:30pm -23.8 -28.8 -30.6 54 - WSW 6 9 3 5 1000.9 - -
29/03:00pm -23.5 -29.1 -31.0 50 - SW 9 15 5 8 1000.7 - -
29/02:30pm -23.3 -28.5 -31.0 49 - SW 7 9 4 5 1000.5 - -
29/02:00pm -22.7 -28.3 -30.9 47 - S 9 17 5 9 1000.2 - -
29/01:30pm -23.0 -28.0 -31.1 48 - S 6 13 3 7 1000.0 - -
29/01:00pm -22.6 -28.9 -31.2 45 - E 13 19 7 10 1000.0 1000.2 -
29/12:30pm -22.5 -28.0 -30.5 48 - ESE 9 13 5 7 1000.0 - -
29/12:00pm -23.1 -28.3 -31.2 47 - N 7 17 4 9 999.6 - -
29/11:30am -22.8 -28.4 -31.0 47 - SSW 9 15 5 8 999.6 - -
29/11:23am -22.8 -28.4 -30.7 48 - SSW 9 15 5 8 999.6 - -
29/11:00am -23.1 -34.0 -31.9 44 - SSE 37 46 20 25 998.8 - -
29/10:30am -23.0 -35.0 -32.5 42 - SSE 43 50 23 27 998.1 - -
29/10:17am -23.4 -35.1 -32.2 44 - SSE 41 44 22 24 998.4 - -
29/10:00am -23.4 -31.1 -31.3 48 - SE 20 30 11 16 998.5 998.7 -
29/09:30am -24.4 -30.7 -30.4 58 - E 13 13 7 7 998.6 - -
29/09:00am -23.4 -29.3 -31.1 49 - N 11 22 6 12 998.3 - -
29/08:30am -23.4 -32.2 -31.5 47 - SSE 26 35 14 19 997.7 - -
29/08:00am -22.0 -29.1 -30.2 47 - SSE 17 24 9 13 997.5 - -
29/07:30am -22.4 -27.0 -30.8 46 - S 4 9 2 5 997.4 - -
29/07:00am -22.7 -27.9 -30.0 51 - SE 7 11 4 6 997.1 997.3 -
29/06:30am -23.7 -29.2 -30.5 54 - E 9 13 5 7 996.7 - -
29/06:00am -22.5 -27.5 -29.8 51 - NNW 6 7 3 4 996.4 - -
29/05:30am -22.1 -28.4 -30.5 46 - E 13 17 7 9 995.8 - -
29/05:00am -22.6 -30.2 -30.3 49 - SSE 20 26 11 14 995.3 - -
29/04:30am -23.1 -28.7 -31.0 48 - SE 9 17 5 9 995.1 - -
29/04:00am -22.1 -27.3 -30.8 45 - SSE 7 13 4 7 994.9 995.1 -
29/03:30am -22.6 -28.9 -31.0 46 - SE 13 19 7 10 994.6 - -
29/03:00am -23.7 -28.9 -30.5 54 - E 7 13 4 7 994.3 - -
29/02:30am -22.6 -29.7 -31.7 43 - S 17 30 9 16 993.9 - -
29/02:00am -22.7 -27.7 -30.0 51 - SSW 6 7 3 4 994.0 - -
29/01:30am -23.2 -28.4 -30.3 52 - NE 7 17 4 9 993.6 - -
29/01:00am -22.3 -29.4 -30.7 46 - SSE 17 24 9 13 993.1 993.3 -
29/12:30am -21.5 -27.4 -30.0 46 - SE 11 17 6 9 992.5 - -
29/12:00am -21.7 -27.6 -30.4 45 - ESE 11 15 6 8 992.1 - -
 
Date/Time
EST
Temp
°C
App
Temp
°C
Dew
Point
Rel
Hum
%
Delta-T
°C
Wind Press
QNH
hPa
Press
MSL
hPa
Rain
since 9 am
mm
Dir
 
Spd
km/h
Gust
km/h
Spd
kts
Gust
kts
28/11:30pm -21.7 -29.3 -30.2 46 - SE 20 28 11 15 991.5 - -
28/11:00pm -22.0 -27.2 -30.4 46 - SSW 7 11 4 6 991.2 - -
28/10:30pm -21.3 -26.8 -30.5 43 - SW 9 15 5 8 991.1 - -
28/10:00pm -21.8 -26.8 -29.8 48 - ESE 6 9 3 5 990.7 990.9 -
28/09:30pm -22.4 -27.6 -29.9 50 - WNW 7 17 4 9 990.2 - -
28/09:00pm -21.5 -27.4 -29.3 49 - SE 11 17 6 9 990.0 - -
28/08:30pm -20.2 -26.1 -29.2 45 - ESE 11 17 6 9 989.4 - -
28/08:00pm -21.5 -26.5 -28.9 51 - SSW 6 13 3 7 989.1 - -
28/07:30pm -20.6 -27.7 -30.4 41 - WSW 17 22 9 12 988.5 - -
28/07:00pm -20.3 -26.2 -29.3 44 - N 11 17 6 9 988.1 988.3 -
28/06:30pm -21.3 -26.3 -30.0 45 - S 6 11 3 6 987.8 - -
28/06:00pm -20.2 -26.5 -31.1 37 - S 13 24 7 13 987.4 - -
28/05:30pm -20.9 -26.4 -29.9 44 - N 9 11 5 6 987.2 - -
28/05:00pm -20.6 -26.5 -29.9 43 - SW 11 17 6 9 986.7 - -
28/04:30pm -20.8 -27.1 -30.0 43 - WNW 13 20 7 11 986.4 - -
28/04:00pm -20.5 -26.0 -30.0 42 - E 9 15 5 8 986.0 986.2 -
28/03:30pm -21.0 -26.6 -30.7 41 - SSW 9 15 5 8 985.9 - -
28/03:00pm -21.0 -26.9 -30.7 41 - NE 11 22 6 12 985.6 - -
28/02:30pm -22.7 -28.6 -30.9 47 - W 11 24 6 13 985.3 - -
28/02:24pm -22.4 -29.9 -31.0 45 - ESE 19 24 10 13 985.2 - -
28/02:00pm -22.4 -33.3 -31.0 45 - SSE 37 46 20 25 984.3 - -
28/01:30pm -21.4 -34.0 -31.1 41 - SSE 46 54 25 29 983.7 - -
28/01:00pm -21.5 -33.5 -30.7 43 - SSE 43 48 23 26 983.6 983.8 -
28/12:30pm -22.1 -33.7 -31.0 44 - SSE 41 50 22 27 983.3 - -
28/12:00pm -22.7 -34.7 -30.9 47 - SSE 43 50 23 27 983.1 - -
28/11:30am -21.5 -32.7 -30.2 45 - SE 39 48 21 26 983.2 - -
28/11:00am -20.3 -32.5 -30.1 41 - SE 44 57 24 31 982.8 - -
28/10:48am -20.0 -31.2 -29.8 41 - SE 39 57 21 31 982.5 - -
28/10:30am -20.0 -31.6 -29.8 41 - SE 41 48 22 26 982.3 - -
28/10:00am -20.5 -33.5 -30.3 41 - SE 48 57 26 31 981.9 982.1 -
28/09:30am -19.8 -33.1 -30.4 38 - SE 50 59 27 32 981.6 - -
28/09:00am -22.4 -32.9 -31.3 44 - SE 35 44 19 24 981.8 - -
28/08:30am -20.9 -31.8 -29.9 44 - SE 37 46 20 25 981.5 - -
28/08:00am -19.6 -31.6 -30.2 38 - SE 43 52 23 28 981.2 - -
28/07:30am -21.5 -33.1 -30.4 45 - SE 41 52 22 28 980.9 - -
28/07:00am -20.6 -32.6 -30.4 41 - SE 43 48 23 26 980.6 980.8 -
28/06:30am -20.2 -32.4 -30.5 39 - SE 44 54 24 29 980.3 - -
28/06:00am -21.7 -35.0 -30.9 43 - SE 50 57 27 31 980.3 - -
28/05:30am -22.0 -35.0 -31.1 44 - SE 48 56 26 30 979.8 - -
28/05:00am -21.6 -34.6 -31.3 41 - SE 48 56 26 30 979.5 - -
28/04:30am -21.7 -33.0 -31.6 40 - SE 39 50 21 27 979.6 - -
28/04:00am -22.8 -34.1 -32.4 41 - SE 39 59 21 32 979.1 979.3 -
28/03:59am -22.8 -33.7 -32.4 41 - SE 37 59 20 32 979.2 - -
28/03:51am -22.4 -33.3 -31.5 43 - SSE 37 46 20 25 979.5 - -
28/03:30am -22.7 -33.2 -32.3 41 - ESE 35 46 19 25 979.4 - -
28/03:00am -23.3 -36.3 -32.6 42 - ESE 48 57 26 31 978.9 - -
28/02:46am -22.4 -32.9 -31.8 42 - SE 35 56 19 30 979.1 - -
28/02:30am -23.5 -33.4 -31.8 46 - SSE 32 41 17 22 979.1 - -
28/02:00am -23.6 -36.6 -32.8 43 - SE 48 54 26 29 978.7 - -
28/01:30am -23.2 -35.4 -32.5 42 - SE 44 54 24 29 978.5 - -
28/01:00am -23.3 -35.3 -33.1 40 - SE 43 54 23 29 978.5 978.7 -
28/12:30am -23.3 -36.7 -33.1 40 - SE 50 57 27 31 978.5 - -
28/12:00am -23.0 -35.6 -32.8 40 - SE 46 54 25 29 978.4 - -
 
Date/Time
EST
Temp
°C
App
Temp
°C
Dew
Point
Rel
Hum
%
Delta-T
°C
Wind Press
QNH
hPa
Press
MSL
hPa
Rain
since 9 am
mm
Dir
 
Spd
km/h
Gust
km/h
Spd
kts
Gust
kts
27/11:30pm -22.4 -35.4 -32.5 39 - SE 48 57 26 31 977.9 - -
27/11:00pm -22.6 -34.8 -32.7 39 - SE 44 54 24 29 977.6 - -
27/10:30pm -22.4 -35.0 -32.8 38 - SE 46 56 25 30 977.5 - -
27/10:24pm -22.1 -33.0 -32.5 38 - SE 37 56 20 30 977.4 - -
27/10:00pm -22.8 -32.7 -32.1 42 - SE 32 39 17 21 977.6 977.7 -
27/09:30pm -22.8 -34.1 -32.9 39 - SE 39 44 21 24 977.3 - -
27/09:00pm -23.0 -33.5 -33.6 37 - SE 35 52 19 28 976.9 - -
27/08:30pm -23.0 -35.1 -33.6 37 - SE 43 50 23 27 976.7 - -
27/08:00pm -22.6 -34.7 -33.8 35 - SE 43 50 23 27 976.6 - -
27/07:30pm -23.0 -35.6 -34.2 35 - SE 46 52 25 28 976.1 - -
27/07:00pm -22.7 -35.3 -34.5 33 - SE 46 54 25 29 975.9 976.0 -
27/06:30pm -23.5 -36.5 -34.6 35 - SE 48 54 26 29 975.8 - -
27/06:00pm -23.0 -36.8 -35.1 32 - SE 52 59 28 32 975.5 - -
27/05:30pm -23.1 -36.9 -35.8 30 - SE 52 61 28 33 975.1 - -

Other Formats:

Comma delimited format used in spreadsheet applications
http://www.bom.gov.au/fwo/IDT60803/IDT60803.89564.axf

JavaScript Object Notation format (JSON) in row-major order
http://www.bom.gov.au/fwo/IDT60803/IDT60803.89564.json